createdAt,value
2016-10-19T00:00:24.502Z,0
2016-10-19T00:01:34.786Z,0
2016-10-19T00:02:45.109Z,0
2016-10-19T00:03:54.791Z,0
2016-10-19T00:05:04.762Z,0
2016-10-19T00:06:14.424Z,0
2016-10-19T00:07:24.731Z,0
2016-10-19T00:08:34.129Z,0
2016-10-19T00:09:44.410Z,0
2016-10-19T00:10:54.389Z,0
2016-10-19T00:12:04.679Z,0
2016-10-19T00:13:14.028Z,0
2016-10-19T00:14:23.698Z,0
2016-10-19T00:15:33.418Z,0
2016-10-19T00:16:43.703Z,0
2016-10-19T00:17:54.014Z,0
2016-10-19T00:19:04.306Z,0
2016-10-19T00:20:14.627Z,0
2016-10-19T00:21:24.894Z,0
2016-10-19T00:22:35.171Z,0
2016-10-19T00:23:45.471Z,0
2016-10-19T00:24:55.765Z,0
2016-10-19T00:26:05.780Z,0
2016-10-19T00:27:16.101Z,0
2016-10-19T00:28:26.404Z,0
2016-10-19T00:29:36.373Z,0
2016-10-19T00:30:46.677Z,0
2016-10-19T00:31:56.958Z,0
2016-10-19T00:33:06.626Z,0
2016-10-19T00:34:16.607Z,0
2016-10-19T00:35:26.568Z,0
2016-10-19T00:36:36.542Z,0
2016-10-19T00:37:46.827Z,0
2016-10-19T00:38:56.497Z,0
2016-10-19T00:40:06.821Z,0
2016-10-19T00:41:16.177Z,0
2016-10-19T00:42:26.144Z,0
2016-10-19T00:43:36.433Z,0
2016-10-19T00:44:46.716Z,0
2016-10-19T00:45:56.998Z,0
2016-10-19T00:47:07.281Z,0
2016-10-19T00:48:17.565Z,0
2016-10-19T00:49:27.842Z,0
2016-10-19T00:50:37.809Z,0
2016-10-19T00:51:48.097Z,0
2016-10-19T00:52:58.367Z,0
2016-10-19T00:54:08.654Z,0
2016-10-19T00:55:18.331Z,0
2016-10-19T00:56:27.993Z,0
2016-10-19T00:57:38.278Z,0
2016-10-19T00:58:48.251Z,0
2016-10-19T00:59:58.523Z,0
2016-10-19T01:01:08.819Z,0
2016-10-19T01:02:19.104Z,0
2016-10-19T01:03:29.096Z,0
2016-10-19T01:04:39.058Z,0
2016-10-19T01:05:49.372Z,0
2016-10-19T01:06:59.069Z,0
2016-10-19T01:08:09.049Z,0
2016-10-19T01:09:18.720Z,0
2016-10-19T01:10:28.687Z,0
2016-10-19T01:11:38.661Z,0
2016-10-19T01:12:48.944Z,0
2016-10-19T01:13:59.233Z,0
2016-10-19T01:15:08.895Z,0
2016-10-19T01:16:18.566Z,0
2016-10-19T01:17:28.533Z,0
2016-10-19T01:18:38.504Z,0
2016-10-19T01:19:48.825Z,0
2016-10-19T01:20:58.498Z,0
2016-10-19T01:22:08.475Z,0
2016-10-19T01:23:18.756Z,0
2016-10-19T01:24:28.724Z,0
2016-10-19T01:25:39.030Z,0
2016-10-19T01:26:49.316Z,0
2016-10-19T01:27:59.586Z,0
2016-10-19T01:29:09.549Z,0
2016-10-19T01:30:19.521Z,0
2016-10-19T01:31:29.798Z,0
2016-10-19T01:32:39.803Z,0
2016-10-19T01:33:50.116Z,0
2016-10-19T01:35:00.417Z,0
2016-10-19T01:36:10.071Z,0
2016-10-19T01:37:20.341Z,0
2016-10-19T01:38:30.003Z,0
2016-10-19T01:39:39.660Z,0
2016-10-19T01:40:49.985Z,0
2016-10-19T01:42:00.278Z,0
2016-10-19T01:43:10.564Z,0
2016-10-19T01:44:20.587Z,0
2016-10-19T01:45:30.552Z,0
2016-10-19T01:46:40.828Z,0
2016-10-19T01:47:51.115Z,0
2016-10-19T01:49:01.084Z,0
2016-10-19T01:50:11.365Z,0
2016-10-19T01:51:21.917Z,0
2016-10-19T01:52:31.923Z,0
2016-10-19T01:53:42.190Z,0
2016-10-19T01:54:52.466Z,0
2016-10-19T01:56:02.759Z,0
2016-10-19T01:57:12.734Z,0
2016-10-19T01:58:23.007Z,0
2016-10-19T01:59:33.283Z,0
2016-10-19T02:00:43.559Z,0
2016-10-19T02:01:53.531Z,0
2016-10-19T02:03:03.508Z,0
2016-10-19T02:04:13.820Z,0
2016-10-19T02:05:24.126Z,0
2016-10-19T02:06:34.108Z,0
2016-10-19T02:07:43.788Z,0
2016-10-19T02:08:53.746Z,0
2016-10-19T02:10:03.731Z,0
2016-10-19T02:11:13.703Z,0
2016-10-19T02:12:23.987Z,0
2016-10-19T02:13:33.960Z,0
2016-10-19T02:14:44.259Z,0
2016-10-19T02:15:54.556Z,0
2016-10-19T02:17:04.245Z,0
2016-10-19T02:18:14.224Z,0
2016-10-19T02:19:24.511Z,0
2016-10-19T02:20:34.794Z,0
2016-10-19T02:21:45.071Z,0
2016-10-19T02:22:54.741Z,0
2016-10-19T02:24:04.125Z,0
2016-10-19T02:25:14.413Z,0
2016-10-19T02:26:24.699Z,0
2016-10-19T02:27:35.017Z,0
2016-10-19T02:28:45.300Z,0
2016-10-19T02:29:55.001Z,0
2016-10-19T02:31:05.277Z,0
2016-10-19T02:32:15.565Z,0
2016-10-19T02:33:25.843Z,0
2016-10-19T02:34:35.822Z,0
2016-10-19T02:35:46.105Z,0
2016-10-19T02:36:56.418Z,0
2016-10-19T02:38:06.700Z,0
2016-10-19T02:39:16.972Z,0
2016-10-19T02:40:27.254Z,0
2016-10-19T02:41:37.575Z,0
2016-10-19T02:42:47.247Z,0
2016-10-19T02:43:57.236Z,0
2016-10-19T02:45:07.525Z,0
2016-10-19T02:46:17.807Z,0
2016-10-19T02:47:27.779Z,0
2016-10-19T02:48:38.062Z,0
2016-10-19T02:49:48.352Z,0
2016-10-19T02:50:58.353Z,0
2016-10-19T02:52:08.638Z,0
2016-10-19T02:53:18.922Z,0
2016-10-19T02:54:29.216Z,0
2016-10-19T02:55:39.192Z,0
2016-10-19T02:56:49.470Z,0
2016-10-19T02:57:59.756Z,0
2016-10-19T02:59:10.039Z,0
2016-10-19T03:00:20.333Z,0
2016-10-19T03:01:30.620Z,0
2016-10-19T03:33:13.540Z,0
2016-10-19T03:34:23.499Z,0
2016-10-19T03:35:33.464Z,0
2016-10-19T03:36:43.126Z,0
2016-10-19T03:37:53.420Z,0
2016-10-19T03:39:03.702Z,0
2016-10-19T03:40:13.980Z,0
2016-10-19T03:41:24.260Z,0
2016-10-19T03:42:34.533Z,0
2016-10-19T03:43:44.190Z,0
2016-10-19T03:44:54.171Z,0
2016-10-19T03:46:04.463Z,0
2016-10-19T03:47:14.483Z,0
2016-10-19T03:48:24.757Z,0
2016-10-19T03:49:34.419Z,0
2016-10-19T03:50:44.105Z,0
2016-10-19T03:51:54.101Z,0
2016-10-19T03:53:03.769Z,0
2016-10-19T03:54:13.435Z,0
2016-10-19T03:55:23.412Z,0
2016-10-19T03:56:33.424Z,0
2016-10-19T03:57:43.400Z,0
2016-10-19T03:58:53.388Z,0
2016-10-19T04:00:03.354Z,0
2016-10-19T04:01:13.331Z,0
2016-10-19T04:02:23.298Z,0
2016-10-19T04:03:33.575Z,0
2016-10-19T04:04:43.861Z,0
2016-10-19T04:05:53.839Z,0
2016-10-19T04:07:03.811Z,0
2016-10-19T04:08:14.082Z,0
2016-10-19T04:09:23.740Z,0
2016-10-19T04:10:33.759Z,0
2016-10-19T04:11:44.046Z,0
2016-10-19T04:12:54.018Z,0
2016-10-19T04:14:04.305Z,0
2016-10-19T04:15:14.615Z,0
2016-10-19T04:16:24.915Z,0
2016-10-19T04:17:34.890Z,0
2016-10-19T04:18:45.174Z,0
2016-10-19T04:19:55.164Z,0
2016-10-19T04:21:05.146Z,0
2016-10-19T04:22:15.117Z,0
2016-10-19T04:23:25.413Z,0
2016-10-19T04:24:35.695Z,0
2016-10-19T04:25:45.982Z,0
2016-10-19T04:26:55.959Z,0
2016-10-19T04:28:06.240Z,0
2016-10-19T04:29:16.564Z,0
2016-10-19T04:30:26.850Z,0
2016-10-19T04:31:36.827Z,0
2016-10-19T04:32:47.103Z,0
2016-10-19T04:33:57.385Z,0
2016-10-19T04:35:07.666Z,0
2016-10-19T04:36:17.972Z,0
2016-10-19T04:37:28.260Z,0
2016-10-19T04:38:38.532Z,0
2016-10-19T04:39:48.494Z,0
2016-10-19T04:40:58.776Z,0
2016-10-19T04:42:08.737Z,0
2016-10-19T04:43:18.710Z,0
2016-10-19T04:44:29.012Z,0
2016-10-19T04:45:38.682Z,0
2016-10-19T04:46:48.953Z,0
2016-10-19T04:47:58.616Z,0
2016-10-19T04:49:08.604Z,0
2016-10-19T04:50:18.566Z,0
2016-10-19T04:51:28.861Z,0
2016-10-19T04:52:39.153Z,0
2016-10-19T04:53:49.434Z,0
2016-10-19T04:54:59.422Z,0
2016-10-19T04:56:08.774Z,0
2016-10-19T04:57:19.059Z,0
2016-10-19T04:58:28.417Z,0
2016-10-19T04:59:38.419Z,0
2016-10-19T05:00:48.390Z,0
2016-10-19T05:01:58.362Z,0
2016-10-19T05:03:08.684Z,0
2016-10-19T05:04:18.704Z,0
2016-10-19T05:05:28.738Z,0
2016-10-19T05:06:38.716Z,0
2016-10-19T05:07:48.985Z,0
2016-10-19T05:08:59.276Z,0
2016-10-19T05:10:08.950Z,0
2016-10-19T05:11:18.965Z,0
2016-10-19T05:12:29.261Z,0
2016-10-19T05:13:39.533Z,0
2016-10-19T05:14:49.202Z,0
2016-10-19T05:15:59.500Z,0
2016-10-19T05:17:09.462Z,0
2016-10-19T05:18:19.784Z,0
2016-10-19T05:19:30.066Z,0
2016-10-19T05:20:40.362Z,0
2016-10-19T05:21:50.325Z,0
2016-10-19T05:23:00.620Z,0
2016-10-19T05:24:10.908Z,0
2016-10-19T05:25:21.187Z,0
2016-10-19T05:26:31.466Z,0
2016-10-19T05:27:41.450Z,0
2016-10-19T05:28:51.108Z,5
2016-10-19T05:30:01.389Z,5
2016-10-19T05:31:11.679Z,5
2016-10-19T05:32:21.971Z,5
2016-10-19T05:33:32.263Z,5
2016-10-19T05:34:42.280Z,5
2016-10-19T05:35:52.249Z,5
2016-10-19T05:37:02.522Z,5
2016-10-19T05:38:12.816Z,5
2016-10-19T05:39:23.104Z,10
2016-10-19T05:40:33.091Z,10
2016-10-19T05:41:43.398Z,10
2016-10-19T05:42:53.691Z,10
2016-10-19T05:44:03.691Z,10
2016-10-19T05:45:13.679Z,10
2016-10-19T05:46:23.965Z,15
2016-10-19T05:47:34.269Z,15
2016-10-19T05:48:43.943Z,15
2016-10-19T05:49:53.927Z,15
2016-10-19T05:51:03.926Z,20
2016-10-19T05:52:13.603Z,20
2016-10-19T05:53:23.900Z,20
2016-10-19T05:54:33.864Z,20
2016-10-19T05:55:44.153Z,20
2016-10-19T05:56:54.495Z,25
2016-10-19T05:58:04.477Z,20
2016-10-19T05:59:14.484Z,20
2016-10-19T06:00:24.152Z,25
2016-10-19T06:01:34.467Z,25
2016-10-19T06:02:44.749Z,25
2016-10-19T06:03:54.704Z,30
2016-10-19T06:05:04.987Z,30
2016-10-19T06:06:15.268Z,35
2016-10-19T06:07:25.565Z,35
2016-10-19T06:08:35.587Z,35
2016-10-19T06:09:45.556Z,35
2016-10-19T06:10:55.884Z,40
2016-10-19T06:12:06.168Z,40
2016-10-19T06:13:15.832Z,40
2016-10-19T06:14:25.805Z,40
2016-10-19T06:15:35.776Z,40
2016-10-19T06:16:45.769Z,40
2016-10-19T06:17:55.431Z,40
2016-10-19T06:19:05.412Z,45
2016-10-19T06:20:15.717Z,45
2016-10-19T06:21:25.700Z,45
2016-10-19T06:22:35.986Z,45
2016-10-19T06:23:46.275Z,45
2016-10-19T06:24:55.947Z,45
2016-10-19T06:26:05.299Z,50
2016-10-19T06:27:15.315Z,50
2016-10-19T06:28:25.592Z,55
2016-10-19T06:29:35.558Z,55
2016-10-19T06:30:45.534Z,60
2016-10-19T06:31:55.531Z,60
2016-10-19T06:33:05.822Z,65
2016-10-19T06:34:15.790Z,70
2016-10-19T06:35:25.771Z,75
2016-10-19T06:36:35.436Z,75
2016-10-19T06:37:45.710Z,75
2016-10-19T06:38:55.692Z,75
2016-10-19T06:40:05.990Z,80
2016-10-19T06:41:15.959Z,80
2016-10-19T06:42:25.318Z,80
2016-10-19T06:43:35.301Z,80
2016-10-19T06:44:45.324Z,80
2016-10-19T06:45:55.606Z,80
2016-10-19T06:47:05.622Z,80
2016-10-19T06:48:15.589Z,85
2016-10-19T06:49:25.890Z,80
2016-10-19T06:50:35.556Z,80
2016-10-19T06:51:45.538Z,80
2016-10-19T06:52:55.507Z,80
2016-10-19T06:54:05.798Z,85
2016-10-19T06:55:16.074Z,85
2016-10-19T06:56:26.064Z,85
2016-10-19T06:57:36.343Z,85
2016-10-19T06:58:46.318Z,85
2016-10-19T06:59:56.587Z,85
2016-10-19T07:01:06.604Z,85
2016-10-19T07:02:16.580Z,90
2016-10-19T07:03:26.551Z,90
2016-10-19T07:04:36.873Z,90
2016-10-19T07:05:46.845Z,95
2016-10-19T07:06:57.139Z,100
2016-10-19T07:08:07.131Z,100
2016-10-19T07:09:17.430Z,105
2016-10-19T07:10:27.417Z,105
2016-10-19T07:11:37.399Z,110
2016-10-19T07:12:47.681Z,110
2016-10-19T07:13:57.668Z,115
2016-10-19T07:15:07.645Z,120
2016-10-19T07:16:17.928Z,120
2016-10-19T07:17:28.212Z,120
2016-10-19T07:18:38.499Z,130
2016-10-19T07:19:48.787Z,125
2016-10-19T07:20:59.076Z,125
2016-10-19T07:22:09.364Z,130
2016-10-19T07:23:19.665Z,125
2016-10-19T07:24:29.650Z,130
2016-10-19T07:25:39.313Z,125
2016-10-19T07:26:49.606Z,130
2016-10-19T07:27:59.576Z,125
2016-10-19T07:29:09.238Z,130
2016-10-19T07:30:19.214Z,135
2016-10-19T07:31:29.495Z,135
2016-10-19T07:32:39.472Z,140
2016-10-19T07:33:49.755Z,140
2016-10-19T07:34:59.113Z,140
2016-10-19T07:36:09.420Z,140
2016-10-19T07:37:19.394Z,140
2016-10-19T07:38:29.377Z,140
2016-10-19T07:39:39.657Z,140
2016-10-19T07:40:49.634Z,140
2016-10-19T07:41:59.311Z,140
2016-10-19T07:43:09.633Z,145
2016-10-19T07:44:19.655Z,150
2016-10-19T07:45:29.650Z,155
2016-10-19T07:46:39.935Z,150
2016-10-19T07:47:49.608Z,150
2016-10-19T07:48:59.326Z,140
2016-10-19T07:50:09.838Z,135
2016-10-19T07:51:20.125Z,130
2016-10-19T07:52:30.116Z,120
2016-10-19T07:53:40.438Z,115
2016-10-19T07:54:50.109Z,110
2016-10-19T07:56:00.392Z,110
2016-10-19T07:57:10.679Z,105
2016-10-19T07:58:20.949Z,105
2016-10-19T07:59:30.951Z,95
2016-10-19T08:00:41.262Z,100
2016-10-19T08:01:50.944Z,110
2016-10-19T08:03:01.243Z,115
2016-10-19T08:04:11.533Z,130
2016-10-19T08:05:21.816Z,140
2016-10-19T08:06:31.822Z,130
2016-10-19T08:07:42.104Z,130
2016-10-19T08:08:52.093Z,130
2016-10-19T08:10:02.087Z,130
2016-10-19T08:11:12.057Z,130
2016-10-19T08:12:22.030Z,135
2016-10-19T08:13:31.712Z,140
2016-10-19T08:14:41.413Z,145
2016-10-19T08:15:51.717Z,145
2016-10-19T08:17:01.740Z,150
2016-10-19T08:18:11.711Z,155
2016-10-19T08:19:21.695Z,150
2016-10-19T08:20:31.769Z,145
2016-10-19T08:21:49.672Z,150
2016-10-19T08:23:08.826Z,155
2016-10-19T08:24:29.276Z,160
2016-10-19T08:25:48.939Z,160
2016-10-19T08:27:05.238Z,165
2016-10-19T08:28:16.895Z,160
2016-10-19T08:29:27.240Z,160
2016-10-19T08:30:43.481Z,165
2016-10-19T08:31:54.188Z,165
2016-10-19T08:33:04.625Z,165
2016-10-19T08:34:14.401Z,170
2016-10-19T08:35:24.747Z,170
2016-10-19T08:36:35.122Z,170
2016-10-19T08:37:45.461Z,170
2016-10-19T08:38:55.485Z,165
2016-10-19T08:40:06.565Z,165
2016-10-19T08:41:16.722Z,165
2016-10-19T08:42:26.755Z,170
2016-10-19T08:43:36.172Z,180
2016-10-19T08:44:46.497Z,185
2016-10-19T08:45:56.850Z,190
2016-10-19T08:47:06.870Z,190
2016-10-19T08:48:17.208Z,190
2016-10-19T08:49:27.226Z,190
2016-10-19T08:50:37.562Z,185
2016-10-19T08:51:47.609Z,185
2016-10-19T08:52:57.634Z,180
2016-10-19T08:54:07.349Z,180
2016-10-19T08:55:17.406Z,175
2016-10-19T08:56:27.751Z,165
2016-10-19T08:57:38.122Z,165
2016-10-19T08:58:48.132Z,160
2016-10-19T08:59:58.144Z,155
2016-10-19T09:01:08.478Z,150
2016-10-19T09:02:18.864Z,140
2016-10-19T09:03:29.208Z,140
2016-10-19T09:04:39.548Z,135
2016-10-19T09:05:49.602Z,130
2016-10-19T09:06:59.318Z,125
2016-10-19T09:08:09.327Z,125
2016-10-19T09:09:19.372Z,130
2016-10-19T09:10:29.949Z,135
2016-10-19T09:11:39.967Z,135
2016-10-19T09:12:50.580Z,135
2016-10-19T09:14:00.579Z,135
2016-10-19T09:15:10.606Z,135
2016-10-19T09:16:20.635Z,135
2016-10-19T09:17:31.121Z,135
2016-10-19T09:18:41.158Z,140
2016-10-19T09:19:51.560Z,145
2016-10-19T09:21:01.956Z,150
2016-10-19T09:22:11.952Z,155
2016-10-19T09:23:21.982Z,155
2016-10-19T09:24:31.998Z,155
2016-10-19T09:25:42.024Z,155
2016-10-19T09:26:52.049Z,160
2016-10-19T09:28:02.370Z,160
2016-10-19T09:29:12.446Z,165
2016-10-19T09:30:21.841Z,170
2016-10-19T09:31:32.205Z,170
2016-10-19T09:32:42.548Z,170
2016-10-19T09:33:52.268Z,175
2016-10-19T09:35:02.282Z,175
2016-10-19T09:36:12.625Z,180
2016-10-19T09:37:22.953Z,180
2016-10-19T09:38:33.296Z,185
2016-10-19T09:39:43.646Z,185
2016-10-19T09:40:53.906Z,185
2016-10-19T09:42:04.212Z,185
2016-10-19T09:43:14.509Z,185
2016-10-19T09:44:24.211Z,180
2016-10-19T09:45:33.899Z,170
2016-10-19T09:46:44.210Z,160
2016-10-19T09:47:54.195Z,150
2016-10-19T09:49:04.496Z,155
2016-10-19T09:50:14.487Z,165
2016-10-19T09:51:24.515Z,175
2016-10-19T09:52:34.524Z,185
2016-10-19T09:53:44.853Z,180
2016-10-19T09:54:54.860Z,180
2016-10-19T09:56:05.176Z,170
2016-10-19T09:57:15.490Z,160
2016-10-19T09:58:25.519Z,170
2016-10-19T09:59:35.531Z,175
2016-10-19T10:00:46.048Z,175
2016-10-19T10:01:56.384Z,170
2016-10-19T10:03:06.393Z,170
2016-10-19T10:04:16.397Z,165
2016-10-19T10:05:26.404Z,160
2016-10-19T10:06:36.429Z,160
2016-10-19T10:07:46.484Z,155
2016-10-19T10:08:56.790Z,155
2016-10-19T10:10:07.108Z,160
2016-10-19T10:11:17.134Z,160
2016-10-19T10:12:27.131Z,160
2016-10-19T10:13:37.458Z,160
2016-10-19T10:14:47.454Z,160
2016-10-19T10:15:57.445Z,155
2016-10-19T10:17:07.442Z,150
2016-10-19T10:18:17.113Z,145
2016-10-19T10:19:27.114Z,145
2016-10-19T10:20:37.256Z,145
2016-10-19T10:21:47.482Z,140
2016-10-19T10:22:57.812Z,140
2016-10-19T10:24:08.137Z,140
2016-10-19T10:25:18.463Z,140
2016-10-19T10:26:28.504Z,135
2016-10-19T10:27:38.796Z,130
2016-10-19T10:28:49.107Z,130
2016-10-19T10:29:59.426Z,135
2016-10-19T10:31:09.443Z,135
2016-10-19T10:32:19.447Z,140
2016-10-19T10:33:30.021Z,145
2016-10-19T10:34:40.312Z,150
2016-10-19T10:35:50.637Z,155
2016-10-19T10:37:00.330Z,160
2016-10-19T10:38:09.716Z,160
2016-10-19T10:39:19.753Z,160
2016-10-19T10:40:29.795Z,155
2016-10-19T10:41:40.337Z,155
2016-10-19T10:42:50.652Z,155
2016-10-19T10:44:00.352Z,160
2016-10-19T10:45:10.652Z,160
2016-10-19T10:46:20.668Z,160
2016-10-19T10:47:30.349Z,160
2016-10-19T10:48:40.649Z,160
2016-10-19T10:49:50.645Z,160
2016-10-19T10:51:00.992Z,165
2016-10-19T10:52:10.373Z,165
2016-10-19T10:53:20.058Z,165
2016-10-19T10:54:29.745Z,165
2016-10-19T10:55:39.783Z,170
2016-10-19T10:56:49.774Z,170
2016-10-19T10:57:59.454Z,175
2016-10-19T10:59:09.759Z,175
2016-10-19T11:00:20.071Z,170
2016-10-19T11:01:30.388Z,165
2016-10-19T11:02:40.719Z,155
2016-10-19T11:03:50.728Z,150
2016-10-19T11:05:00.726Z,145
2016-10-19T11:06:10.723Z,135
2016-10-19T11:07:21.069Z,125
2016-10-19T11:08:31.084Z,115
2016-10-19T11:09:41.102Z,100
2016-10-19T11:10:50.809Z,85
2016-10-19T11:12:00.836Z,75
2016-10-19T11:13:10.843Z,65
2016-10-19T11:14:20.827Z,60
2016-10-19T11:15:31.137Z,55
2016-10-19T11:16:41.448Z,55
2016-10-19T11:17:51.804Z,60
2016-10-19T11:19:02.113Z,60
2016-10-19T11:20:12.486Z,65
2016-10-19T11:21:22.484Z,65
2016-10-19T11:22:32.484Z,65
2016-10-19T11:23:42.499Z,65
2016-10-19T11:24:52.811Z,80
2016-10-19T11:26:03.122Z,90
2016-10-19T11:27:13.118Z,90
2016-10-19T11:28:23.427Z,100
2016-10-19T11:29:33.748Z,110
2016-10-19T11:30:44.051Z,115
2016-10-19T11:31:54.352Z,120
2016-10-19T11:33:04.679Z,120
2016-10-19T11:34:15.007Z,120
2016-10-19T11:35:25.299Z,115
2016-10-19T11:36:35.611Z,115
2016-10-19T11:37:45.910Z,115
2016-10-19T11:38:55.606Z,115
2016-10-19T11:40:05.323Z,115
2016-10-19T11:41:15.630Z,115
2016-10-19T11:42:25.932Z,115
2016-10-19T11:43:36.226Z,115
2016-10-19T11:44:46.240Z,110
2016-10-19T11:45:55.946Z,105
2016-10-19T11:47:05.957Z,100
2016-10-19T11:48:16.265Z,100
2016-10-19T11:49:26.279Z,95
2016-10-19T11:50:36.298Z,90
2016-10-19T11:51:46.610Z,90
2016-10-19T11:52:56.902Z,90
2016-10-19T11:54:06.954Z,90
2016-10-19T11:55:17.265Z,95
2016-10-19T11:56:27.265Z,100
2016-10-19T11:57:37.650Z,110
2016-10-19T11:58:47.692Z,110
2016-10-19T11:59:58.027Z,110
2016-10-19T12:01:08.369Z,110
2016-10-19T12:02:18.714Z,110
2016-10-19T12:03:28.499Z,105
2016-10-19T12:04:38.508Z,95
2016-10-19T12:05:48.873Z,90
2016-10-19T12:06:58.602Z,85
2016-10-19T12:08:08.633Z,80
2016-10-19T12:09:18.695Z,75
2016-10-19T12:10:29.038Z,70
2016-10-19T12:11:38.767Z,70
2016-10-19T12:12:48.803Z,75
2016-10-19T12:13:58.922Z,75
2016-10-19T12:15:08.963Z,80
2016-10-19T12:16:19.069Z,85
2016-10-19T12:17:29.623Z,85
2016-10-19T12:18:40.006Z,85
2016-10-19T12:19:50.366Z,85
2016-10-19T12:21:00.725Z,90
2016-10-19T12:22:10.756Z,95
2016-10-19T12:23:20.487Z,95
2016-10-19T12:24:30.540Z,100
2016-10-19T12:25:40.563Z,100
2016-10-19T12:26:50.928Z,105
2016-10-19T12:28:01.284Z,110
2016-10-19T12:29:11.351Z,110
2016-10-19T12:30:21.331Z,115
2016-10-19T12:31:31.355Z,120
2016-10-19T12:32:41.451Z,115
2016-10-19T12:33:51.442Z,115
2016-10-19T12:35:01.462Z,110
2016-10-19T12:36:11.801Z,110
2016-10-19T12:37:21.174Z,110
2016-10-19T12:38:31.183Z,110
2016-10-19T12:39:41.190Z,110
2016-10-19T12:40:50.918Z,110
2016-10-19T12:42:01.217Z,110
2016-10-19T12:43:11.203Z,110
2016-10-19T12:44:21.210Z,105
2016-10-19T12:45:31.229Z,105
2016-10-19T12:46:41.559Z,105
2016-10-19T12:47:51.230Z,105
2016-10-19T12:49:01.560Z,105
2016-10-19T12:50:12.090Z,100
2016-10-19T12:51:22.409Z,100
2016-10-19T12:52:32.450Z,100
2016-10-19T12:53:42.464Z,90
2016-10-19T12:54:52.769Z,95
2016-10-19T12:56:03.077Z,100
2016-10-19T12:57:13.375Z,100
2016-10-19T12:58:22.761Z,90
2016-10-19T12:59:33.064Z,85
2016-10-19T13:00:43.063Z,80
2016-10-19T13:01:53.364Z,80
2016-10-19T13:03:03.382Z,80
2016-10-19T13:04:13.396Z,85
2016-10-19T13:05:23.712Z,90
2016-10-19T13:06:33.708Z,90
2016-10-19T13:07:44.002Z,90
2016-10-19T13:08:54.335Z,85
2016-10-19T13:10:04.007Z,85
2016-10-19T13:11:14.310Z,80
2016-10-19T13:12:24.603Z,75
2016-10-19T13:13:34.606Z,75
2016-10-19T13:14:44.322Z,75
2016-10-19T13:15:54.636Z,70
2016-10-19T13:17:04.941Z,70
2016-10-19T13:18:14.975Z,65
2016-10-19T13:19:25.009Z,55
2016-10-19T13:20:35.027Z,45
2016-10-19T13:21:45.033Z,45
2016-10-19T13:22:55.369Z,45
2016-10-19T13:24:05.678Z,45
2016-10-19T13:25:15.377Z,45
2016-10-19T13:26:25.379Z,45
2016-10-19T13:27:35.687Z,45
2016-10-19T13:28:45.687Z,45
2016-10-19T13:29:55.398Z,45
2016-10-19T13:31:05.450Z,45
2016-10-19T13:32:15.442Z,45
2016-10-19T13:33:25.492Z,50
2016-10-19T13:34:35.496Z,55
2016-10-19T13:35:45.174Z,55
2016-10-19T13:36:55.201Z,60
2016-10-19T13:38:05.561Z,60
2016-10-19T13:39:15.564Z,60
2016-10-19T13:40:25.565Z,60
2016-10-19T13:41:35.583Z,60
2016-10-19T13:42:45.896Z,60
2016-10-19T13:43:56.232Z,60
2016-10-19T13:45:06.452Z,60
2016-10-19T13:46:16.155Z,65
2016-10-19T13:47:26.166Z,65
2016-10-19T13:48:36.168Z,60
2016-10-19T13:49:46.491Z,60
2016-10-19T13:50:56.512Z,65
2016-10-19T13:52:06.506Z,65
2016-10-19T13:53:16.522Z,60
2016-10-19T13:54:26.557Z,55
2016-10-19T13:55:36.551Z,55
2016-10-19T13:56:46.580Z,50
2016-10-19T13:57:56.893Z,50
2016-10-19T13:59:06.293Z,50
2016-10-19T14:00:16.613Z,50
2016-10-19T14:01:26.316Z,45
2016-10-19T14:02:36.623Z,45
2016-10-19T14:03:46.975Z,45
2016-10-19T14:04:57.018Z,45
2016-10-19T14:06:07.326Z,45
2016-10-19T14:07:17.627Z,45
2016-10-19T14:08:27.934Z,50
2016-10-19T14:09:37.957Z,50
2016-10-19T14:10:48.503Z,50
2016-10-19T14:11:58.820Z,50
2016-10-19T14:13:08.819Z,45
2016-10-19T14:14:19.128Z,45
2016-10-19T14:15:29.431Z,45
2016-10-19T14:16:39.731Z,45
2016-10-19T14:17:50.037Z,45
2016-10-19T14:19:00.367Z,45
2016-10-19T14:20:10.669Z,45
2016-10-19T14:21:20.689Z,45
2016-10-19T14:22:30.999Z,45
2016-10-19T14:23:40.995Z,40
2016-10-19T14:24:51.312Z,40
2016-10-19T14:26:01.304Z,40
2016-10-19T14:27:11.310Z,35
2016-10-19T14:28:21.320Z,35
2016-10-19T14:29:31.030Z,35
2016-10-19T14:30:41.355Z,35
2016-10-19T14:31:51.721Z,35
2016-10-19T14:33:02.331Z,35
2016-10-19T14:34:12.654Z,35
2016-10-19T14:35:22.673Z,35
2016-10-19T14:36:33.068Z,35
2016-10-19T14:37:43.136Z,35
2016-10-19T14:38:53.141Z,35
2016-10-19T14:40:03.529Z,35
2016-10-19T14:41:13.546Z,35
2016-10-19T14:42:23.892Z,35
2016-10-19T14:43:34.458Z,35
2016-10-19T14:44:44.799Z,35
2016-10-19T14:45:54.508Z,35
2016-10-19T14:47:04.209Z,35
2016-10-19T14:48:14.430Z,35
2016-10-19T14:49:24.743Z,30
2016-10-19T14:50:34.441Z,30
2016-10-19T14:51:44.458Z,25
2016-10-19T14:52:54.769Z,25
2016-10-19T14:54:04.150Z,20
2016-10-19T14:55:14.460Z,20
2016-10-19T14:56:24.453Z,20
2016-10-19T14:57:34.489Z,20
2016-10-19T14:58:44.478Z,15
2016-10-19T14:59:54.496Z,15
2016-10-19T15:01:04.864Z,15
2016-10-19T15:02:15.234Z,15
2016-10-19T15:03:25.250Z,15
2016-10-19T15:04:35.570Z,15
2016-10-19T15:05:45.924Z,15
2016-10-19T15:06:55.601Z,10
2016-10-19T15:08:05.927Z,10
2016-10-19T15:09:15.919Z,10
2016-10-19T15:10:26.236Z,10
2016-10-19T15:11:36.275Z,10
2016-10-19T15:12:46.281Z,10
2016-10-19T15:13:56.602Z,10
2016-10-19T15:15:06.298Z,5
2016-10-19T15:16:15.979Z,5
2016-10-19T15:17:25.965Z,5
2016-10-19T15:18:36.024Z,5
2016-10-19T15:19:46.358Z,5
2016-10-19T15:20:56.709Z,5
2016-10-19T15:22:06.745Z,5
2016-10-19T15:23:17.104Z,5
2016-10-19T15:24:27.118Z,5
2016-10-19T15:25:37.430Z,5
2016-10-19T15:26:47.421Z,0
2016-10-19T15:27:57.716Z,0
2016-10-19T15:29:08.029Z,0
2016-10-19T15:30:18.339Z,0
2016-10-19T15:31:28.338Z,0
2016-10-19T15:32:38.032Z,0
2016-10-19T15:33:47.406Z,0
2016-10-19T15:34:57.431Z,0
2016-10-19T15:36:07.130Z,0
2016-10-19T15:37:17.424Z,0
2016-10-19T15:38:27.756Z,0
2016-10-19T15:39:38.061Z,0
2016-10-19T15:40:47.726Z,0
2016-10-19T15:41:58.029Z,0
2016-10-19T15:43:08.346Z,0
2016-10-19T15:44:18.637Z,0
2016-10-19T15:45:28.632Z,0
2016-10-19T15:46:38.679Z,0
2016-10-19T15:47:48.355Z,0
2016-10-19T15:48:58.017Z,0
2016-10-19T15:50:08.360Z,0
2016-10-19T15:51:18.654Z,0
2016-10-19T15:52:28.952Z,0
2016-10-19T15:53:39.263Z,0
2016-10-19T15:54:49.569Z,0
2016-10-19T15:55:59.863Z,0
2016-10-19T15:57:09.868Z,0
2016-10-19T15:58:19.879Z,0
2016-10-19T15:59:29.552Z,0
2016-10-19T16:00:39.838Z,0
2016-10-19T16:01:50.125Z,0
2016-10-19T16:02:59.797Z,0
2016-10-19T16:04:09.777Z,0
2016-10-19T16:05:19.774Z,0
2016-10-19T16:06:29.798Z,0
2016-10-19T16:07:40.092Z,0
2016-10-19T16:08:50.370Z,0
2016-10-19T16:10:00.049Z,0
2016-10-19T16:11:09.106Z,0
2016-10-19T16:12:19.390Z,0
2016-10-19T16:13:29.386Z,0
2016-10-19T16:14:39.678Z,0
2016-10-19T16:15:49.353Z,0
2016-10-19T16:16:58.722Z,0
2016-10-19T16:18:08.721Z,0
2016-10-19T16:19:19.034Z,0
2016-10-19T16:20:29.331Z,0
2016-10-19T16:21:39.627Z,0
2016-10-19T16:22:49.919Z,0
2016-10-19T16:24:00.216Z,0
2016-10-19T16:25:10.202Z,0
2016-10-19T16:26:19.883Z,0
2016-10-19T16:27:30.173Z,0
2016-10-19T16:28:40.166Z,0
2016-10-19T16:29:50.465Z,0
2016-10-19T16:31:00.766Z,0
2016-10-19T16:32:11.065Z,0
2016-10-19T16:33:21.053Z,0
2016-10-19T16:34:31.048Z,0
2016-10-19T16:35:41.029Z,0
2016-10-19T16:36:51.322Z,0
2016-10-19T16:38:01.620Z,0
2016-10-19T16:39:11.951Z,0
2016-10-19T16:40:22.244Z,0
2016-10-19T16:41:32.579Z,0
2016-10-19T16:42:42.562Z,0
2016-10-19T16:43:52.257Z,0
2016-10-19T16:45:01.919Z,0
2016-10-19T16:46:12.207Z,0
2016-10-19T16:47:22.189Z,0
2016-10-19T16:48:32.516Z,0
2016-10-19T16:49:42.868Z,0
2016-10-19T16:50:52.857Z,0
2016-10-19T16:52:02.849Z,0
2016-10-19T16:53:13.142Z,0
2016-10-19T16:54:23.426Z,0
2016-10-19T16:55:33.400Z,0
2016-10-19T16:56:43.415Z,0
2016-10-19T16:57:53.430Z,0
2016-10-19T16:59:03.413Z,0
2016-10-19T17:00:13.711Z,0
2016-10-19T17:01:23.695Z,0
2016-10-19T17:02:34.021Z,0
2016-10-19T17:03:43.702Z,0
2016-10-19T17:04:53.988Z,0
2016-10-19T17:06:03.981Z,0
2016-10-19T17:07:14.284Z,0
2016-10-19T17:08:24.569Z,0
2016-10-19T17:09:34.860Z,0
2016-10-19T17:10:45.179Z,0
2016-10-19T17:11:55.164Z,0
2016-10-19T17:13:05.474Z,0
2016-10-19T17:14:15.457Z,0
2016-10-19T17:15:25.789Z,0